createdAt,value
2017-04-04T00:00:56.330Z,0
2017-04-04T00:01:56.620Z,0
2017-04-04T00:02:56.600Z,0
2017-04-04T00:03:56.582Z,0
2017-04-04T00:04:56.565Z,0
2017-04-04T00:05:56.240Z,0
2017-04-04T00:06:56.543Z,0
2017-04-04T00:07:56.520Z,0
2017-04-04T00:08:56.496Z,0
2017-04-04T00:09:56.167Z,0
2017-04-04T00:10:56.462Z,0
2017-04-04T00:11:56.448Z,0
2017-04-04T00:12:56.436Z,0
2017-04-04T00:13:56.443Z,0
2017-04-04T00:14:56.397Z,0
2017-04-04T00:15:56.070Z,0
2017-04-04T00:16:56.362Z,0
2017-04-04T00:17:56.032Z,0
2017-04-04T00:18:56.326Z,0
2017-04-04T00:19:56.302Z,0
2017-04-04T00:20:56.329Z,0
2017-04-04T00:21:56.269Z,0
2017-04-04T00:22:55.942Z,0
2017-04-04T00:23:56.286Z,0
2017-04-04T00:24:56.219Z,0
2017-04-04T00:25:56.201Z,0
2017-04-04T00:26:56.180Z,0
2017-04-04T00:27:56.163Z,0
2017-04-04T00:28:56.147Z,0
2017-04-04T00:29:56.135Z,0
2017-04-04T00:30:55.807Z,0
2017-04-04T00:31:55.479Z,0
2017-04-04T00:32:56.082Z,0
2017-04-04T00:33:55.747Z,0
2017-04-04T00:34:55.408Z,0
2017-04-04T00:35:56.059Z,0
2017-04-04T00:36:55.707Z,0
2017-04-04T00:37:55.985Z,0
2017-04-04T00:38:55.968Z,0
2017-04-04T00:39:55.954Z,0
2017-04-04T00:40:55.619Z,0
2017-04-04T00:41:55.607Z,0
2017-04-04T00:42:55.585Z,0
2017-04-04T00:43:55.886Z,0
2017-04-04T00:44:55.239Z,0
2017-04-04T00:45:55.849Z,0
2017-04-04T00:46:56.034Z,0
2017-04-04T00:47:55.815Z,0
2017-04-04T00:48:55.790Z,0
2017-04-04T00:49:55.822Z,0
2017-04-04T00:50:55.452Z,0
2017-04-04T00:51:55.750Z,0
2017-04-04T00:52:55.720Z,0
2017-04-04T00:53:55.705Z,0
2017-04-04T00:54:55.063Z,0
2017-04-04T00:55:55.679Z,0
2017-04-04T00:56:55.651Z,0
2017-04-04T00:57:55.627Z,0
2017-04-04T00:58:55.306Z,0
2017-04-04T00:59:55.285Z,0
2017-04-04T01:00:55.273Z,0
2017-04-04T01:01:55.561Z,0
2017-04-04T01:02:55.230Z,0
2017-04-04T01:03:55.528Z,0
2017-04-04T01:04:55.194Z,0
2017-04-04T01:05:55.185Z,0
2017-04-04T01:06:55.482Z,0
2017-04-04T01:07:55.456Z,0
2017-04-04T01:08:55.434Z,0
2017-04-04T01:09:55.113Z,0
2017-04-04T01:10:55.407Z,0
2017-04-04T01:11:55.388Z,0
2017-04-04T01:12:54.747Z,0
2017-04-04T01:13:55.346Z,0
2017-04-04T01:14:55.324Z,0
2017-04-04T01:15:55.008Z,0
2017-04-04T01:16:55.298Z,0
2017-04-04T01:17:55.278Z,0
2017-04-04T01:18:54.947Z,0
2017-04-04T01:19:55.247Z,0
2017-04-04T01:20:55.232Z,0
2017-04-04T01:21:54.936Z,0
2017-04-04T01:22:54.872Z,0
2017-04-04T01:23:55.172Z,0
2017-04-04T01:24:54.524Z,0
2017-04-04T01:25:55.133Z,0
2017-04-04T01:26:54.799Z,0
2017-04-04T01:27:55.136Z,0
2017-04-04T01:28:55.079Z,0
2017-04-04T01:29:54.752Z,0
2017-04-04T01:30:54.730Z,0
2017-04-04T01:31:54.715Z,0
2017-04-04T01:32:54.382Z,0
2017-04-04T01:33:54.984Z,0
2017-04-04T01:34:54.656Z,0
2017-04-04T01:35:54.955Z,0
2017-04-04T01:36:54.632Z,0
2017-04-04T01:37:54.599Z,0
2017-04-04T01:38:54.588Z,0
2017-04-04T01:39:54.575Z,0
2017-04-04T01:40:54.860Z,0
2017-04-04T01:41:54.844Z,0
2017-04-04T01:42:54.516Z,0
2017-04-04T01:43:54.507Z,0
2017-04-04T01:44:54.477Z,0
2017-04-04T01:45:54.767Z,0
2017-04-04T01:46:54.430Z,0
2017-04-04T01:47:54.733Z,0
2017-04-04T01:48:54.723Z,0
2017-04-04T01:49:54.693Z,0
2017-04-04T01:50:54.675Z,0
2017-04-04T01:51:54.342Z,0
2017-04-04T01:52:54.683Z,0
2017-04-04T01:53:54.303Z,0
2017-04-04T01:54:54.597Z,0
2017-04-04T01:55:54.278Z,0
2017-04-04T01:56:54.249Z,0
2017-04-04T01:57:54.551Z,0
2017-04-04T01:58:54.532Z,0
2017-04-04T01:59:54.193Z,0
2017-04-04T02:00:54.177Z,0
2017-04-04T02:01:54.492Z,0
2017-04-04T02:02:54.473Z,0
2017-04-04T02:03:54.125Z,0
2017-04-04T02:04:53.787Z,0
2017-04-04T02:05:53.812Z,0
2017-04-04T02:06:54.382Z,0
2017-04-04T02:07:54.077Z,0
2017-04-04T02:08:54.347Z,0
2017-04-04T02:09:54.369Z,0
2017-04-04T02:10:54.311Z,0
2017-04-04T02:11:54.327Z,0
2017-04-04T02:12:54.265Z,0
2017-04-04T02:13:53.935Z,0
2017-04-04T02:14:54.275Z,0
2017-04-04T02:15:53.275Z,0
2017-04-04T02:16:54.188Z,0
2017-04-04T02:17:53.861Z,0
2017-04-04T02:18:54.186Z,0
2017-04-04T02:19:54.140Z,0
2017-04-04T02:20:53.806Z,0
2017-04-04T02:21:53.789Z,0
2017-04-04T02:22:54.078Z,0
2017-04-04T02:23:53.751Z,0
2017-04-04T02:24:53.732Z,0
2017-04-04T02:25:53.713Z,0
2017-04-04T02:26:54.004Z,0
2017-04-04T02:27:53.670Z,0
2017-04-04T02:28:53.650Z,0
2017-04-04T02:29:53.945Z,0
2017-04-04T02:30:53.972Z,0
2017-04-04T02:31:53.910Z,0
2017-04-04T02:32:53.581Z,0
2017-04-04T02:33:53.909Z,0
2017-04-04T02:34:53.552Z,0
2017-04-04T02:35:53.833Z,0
2017-04-04T02:36:53.531Z,0
2017-04-04T02:37:53.799Z,0
2017-04-04T02:38:53.781Z,0
2017-04-04T02:39:53.761Z,0
2017-04-04T02:40:53.739Z,0
2017-04-04T02:41:53.409Z,0
2017-04-04T02:42:53.720Z,0
2017-04-04T02:43:53.681Z,0
2017-04-04T02:44:53.666Z,0
2017-04-04T02:45:53.646Z,0
2017-04-04T02:46:53.836Z,0
2017-04-04T02:47:53.294Z,0
2017-04-04T02:48:53.012Z,0
2017-04-04T02:49:53.576Z,0
2017-04-04T02:50:53.240Z,0
2017-04-04T02:51:53.525Z,0
2017-04-04T02:52:53.205Z,0
2017-04-04T02:53:53.493Z,0
2017-04-04T02:54:53.475Z,0
2017-04-04T02:55:53.465Z,0
2017-04-04T02:56:53.490Z,0
2017-04-04T02:57:53.420Z,0
2017-04-04T02:58:53.089Z,0
2017-04-04T02:59:52.763Z,0
2017-04-04T03:00:53.365Z,0
2017-04-04T03:01:53.036Z,0
2017-04-04T03:02:53.215Z,0
2017-04-04T03:03:53.306Z,0
2017-04-04T03:04:53.289Z,0
2017-04-04T03:05:53.287Z,0
2017-04-04T03:06:53.249Z,0
2017-04-04T03:07:52.918Z,0
2017-04-04T03:08:52.322Z,0
2017-04-04T03:09:53.193Z,0
2017-04-04T03:10:52.867Z,0
2017-04-04T03:11:52.841Z,0
2017-04-04T03:12:52.821Z,0
2017-04-04T03:13:53.117Z,0
2017-04-04T03:14:53.105Z,0
2017-04-04T03:15:53.081Z,0
2017-04-04T03:16:52.433Z,0
2017-04-04T03:17:53.104Z,0
2017-04-04T03:18:53.028Z,0
2017-04-04T03:19:53.007Z,0
2017-04-04T03:20:52.690Z,0
2017-04-04T03:21:52.972Z,0
2017-04-04T03:22:52.943Z,0
2017-04-04T03:23:52.612Z,0
2017-04-04T03:24:52.652Z,0
2017-04-04T03:25:52.587Z,0
2017-04-04T03:26:52.240Z,0
2017-04-04T03:27:52.855Z,0
2017-04-04T03:28:52.836Z,0
2017-04-04T03:29:52.826Z,0
2017-04-04T03:30:52.814Z,0
2017-04-04T03:31:52.824Z,0
2017-04-04T03:32:52.455Z,0
2017-04-04T03:33:52.112Z,0
2017-04-04T03:34:52.725Z,0
2017-04-04T03:35:52.386Z,0
2017-04-04T03:36:52.690Z,0
2017-04-04T03:37:52.674Z,0
2017-04-04T03:38:52.395Z,0
2017-04-04T03:39:52.625Z,0
2017-04-04T03:40:52.601Z,0
2017-04-04T03:41:52.585Z,0
2017-04-04T03:42:52.567Z,0
2017-04-04T03:43:52.549Z,0
2017-04-04T03:44:52.549Z,0
2017-04-04T03:45:52.217Z,0
2017-04-04T03:46:52.180Z,0
2017-04-04T03:47:52.471Z,0
2017-04-04T03:48:52.450Z,0
2017-04-04T03:49:52.432Z,0
2017-04-04T03:50:52.414Z,0
2017-04-04T03:51:52.402Z,0
2017-04-04T03:52:52.078Z,0
2017-04-04T03:53:52.366Z,0
2017-04-04T03:54:52.339Z,0
2017-04-04T03:55:52.328Z,0
2017-04-04T03:56:51.984Z,0
2017-04-04T03:57:52.279Z,0
2017-04-04T03:58:52.258Z,0
2017-04-04T03:59:51.920Z,0
2017-04-04T04:00:52.237Z,0
2017-04-04T04:01:51.895Z,0
2017-04-04T04:02:52.182Z,0
2017-04-04T04:03:52.178Z,0
2017-04-04T04:04:52.147Z,0
2017-04-04T04:05:52.141Z,0
2017-04-04T04:06:52.109Z,0
2017-04-04T04:07:52.102Z,0
2017-04-04T04:08:51.761Z,0
2017-04-04T04:09:52.065Z,0
2017-04-04T04:10:52.043Z,0
2017-04-04T04:11:51.709Z,0
2017-04-04T04:12:52.033Z,0
2017-04-04T04:13:51.970Z,0
2017-04-04T04:14:51.967Z,0
2017-04-04T04:15:51.965Z,0
2017-04-04T04:16:51.943Z,0
2017-04-04T04:17:51.900Z,0
2017-04-04T04:18:51.252Z,0
2017-04-04T04:19:51.240Z,0
2017-04-04T04:20:51.840Z,0
2017-04-04T04:21:51.541Z,0
2017-04-04T04:22:51.803Z,0
2017-04-04T04:23:51.796Z,0
2017-04-04T04:24:51.453Z,0
2017-04-04T04:25:51.739Z,0
2017-04-04T04:26:51.415Z,0
2017-04-04T04:27:51.708Z,0
2017-04-04T04:28:51.374Z,0
2017-04-04T04:29:51.665Z,0
2017-04-04T04:30:51.645Z,0
2017-04-04T04:31:51.674Z,0
2017-04-04T04:32:50.981Z,0
2017-04-04T04:33:51.271Z,0
2017-04-04T04:34:51.571Z,0
2017-04-04T04:35:51.593Z,0
2017-04-04T04:36:51.528Z,0
2017-04-04T04:37:51.508Z,0
2017-04-04T04:38:51.199Z,0
2017-04-04T04:39:50.872Z,0
2017-04-04T04:40:51.462Z,0
2017-04-04T04:41:51.433Z,0
2017-04-04T04:42:51.408Z,0
2017-04-04T04:43:51.393Z,0
2017-04-04T04:44:51.381Z,0
2017-04-04T04:45:51.370Z,0
2017-04-04T04:46:51.221Z,0
2017-04-04T04:47:51.315Z,0
2017-04-04T04:48:50.980Z,0
2017-04-04T04:49:51.275Z,0
2017-04-04T04:50:51.256Z,0
2017-04-04T04:51:51.237Z,0
2017-04-04T04:52:51.216Z,0
2017-04-04T04:53:50.882Z,0
2017-04-04T04:54:51.176Z,0
2017-04-04T04:55:51.157Z,0
2017-04-04T04:56:51.137Z,5
2017-04-04T04:57:51.113Z,5
2017-04-04T04:58:50.787Z,5
2017-04-04T04:59:51.089Z,5
2017-04-04T05:00:50.780Z,5
2017-04-04T05:01:51.061Z,5
2017-04-04T05:02:51.055Z,5
2017-04-04T05:03:50.690Z,5
2017-04-04T05:04:50.671Z,5
2017-04-04T05:05:50.960Z,10
2017-04-04T05:06:50.941Z,10
2017-04-04T05:07:50.922Z,10
2017-04-04T05:08:50.625Z,10
2017-04-04T05:09:50.930Z,10
2017-04-04T05:10:50.582Z,10
2017-04-04T05:11:50.590Z,10
2017-04-04T05:12:50.205Z,15
2017-04-04T05:13:50.807Z,15
2017-04-04T05:14:50.791Z,15
2017-04-04T05:15:50.819Z,15
2017-04-04T05:16:50.747Z,15
2017-04-04T05:17:50.414Z,15
2017-04-04T05:18:50.711Z,20
2017-04-04T05:19:50.378Z,20
2017-04-04T05:20:50.686Z,20
2017-04-04T05:21:50.343Z,20
2017-04-04T05:22:50.316Z,20
2017-04-04T05:23:50.607Z,25
2017-04-04T05:24:50.584Z,25
2017-04-04T05:25:50.573Z,25
2017-04-04T05:26:50.547Z,25
2017-04-04T05:27:49.911Z,25
2017-04-04T05:28:50.507Z,25
2017-04-04T05:29:50.495Z,30
2017-04-04T05:30:49.847Z,30
2017-04-04T05:31:50.454Z,30
2017-04-04T05:32:50.430Z,30
2017-04-04T05:33:50.411Z,30
2017-04-04T05:34:50.222Z,35
2017-04-04T05:35:50.075Z,35
2017-04-04T05:36:50.363Z,35
2017-04-04T05:37:50.334Z,35
2017-04-04T05:38:50.041Z,35
2017-04-04T05:39:50.293Z,35
2017-04-04T05:40:50.278Z,40
2017-04-04T05:41:50.248Z,40
2017-04-04T05:42:50.247Z,40
2017-04-04T05:43:50.217Z,40
2017-04-04T05:44:50.200Z,40
2017-04-04T05:45:49.868Z,40
2017-04-04T05:46:49.535Z,45
2017-04-04T05:47:49.821Z,45
2017-04-04T05:48:49.807Z,45
2017-04-04T05:49:49.791Z,45
2017-04-04T05:50:49.768Z,45
2017-04-04T05:51:50.064Z,50
2017-04-04T05:52:50.037Z,50
2017-04-04T05:53:50.026Z,50
2017-04-04T05:54:50.013Z,50
2017-04-04T05:55:49.379Z,50
2017-04-04T05:56:49.656Z,50
2017-04-04T05:57:50.152Z,55
2017-04-04T05:58:49.933Z,55
2017-04-04T05:59:49.907Z,55
2017-04-04T06:00:49.892Z,55
2017-04-04T06:01:49.880Z,55
2017-04-04T06:02:49.850Z,55
2017-04-04T06:03:49.866Z,60
2017-04-04T06:04:49.500Z,60
2017-04-04T06:05:49.823Z,60
2017-04-04T06:06:49.774Z,60
2017-04-04T06:07:49.813Z,60
2017-04-04T06:08:49.433Z,60
2017-04-04T06:09:49.730Z,60
2017-04-04T06:10:49.710Z,65
2017-04-04T06:11:49.698Z,65
2017-04-04T06:12:49.266Z,65
2017-04-04T06:13:49.658Z,65
2017-04-04T06:14:49.640Z,65
2017-04-04T06:15:49.612Z,65
2017-04-04T06:16:49.692Z,65
2017-04-04T06:17:49.565Z,70
2017-04-04T06:18:49.548Z,70
2017-04-04T06:19:49.223Z,70
2017-04-04T06:20:49.513Z,70
2017-04-04T06:21:49.494Z,70
2017-04-04T06:22:49.477Z,70
2017-04-04T06:23:49.140Z,70
2017-04-04T06:24:49.494Z,75
2017-04-04T06:25:49.102Z,75
2017-04-04T06:26:49.404Z,75
2017-04-04T06:27:49.386Z,75
2017-04-04T06:28:49.364Z,75
2017-04-04T06:29:49.343Z,75
2017-04-04T06:30:49.373Z,75
2017-04-04T06:31:49.311Z,80
2017-04-04T06:32:48.689Z,80
2017-04-04T06:33:48.326Z,80
2017-04-04T06:34:48.943Z,80
2017-04-04T06:35:48.610Z,80
2017-04-04T06:36:49.222Z,80
2017-04-04T06:37:49.195Z,80
2017-04-04T06:38:49.176Z,85
2017-04-04T06:39:49.209Z,85
2017-04-04T06:40:48.826Z,85
2017-04-04T06:41:48.497Z,85
2017-04-04T06:42:49.114Z,85
2017-04-04T06:43:48.827Z,85
2017-04-04T06:44:48.748Z,85
2017-04-04T06:45:48.743Z,85
2017-04-04T06:46:48.913Z,90
2017-04-04T06:47:48.694Z,90
2017-04-04T06:48:48.995Z,90
2017-04-04T06:49:48.980Z,90
2017-04-04T06:50:49.004Z,90
2017-04-04T06:51:48.947Z,90
2017-04-04T06:52:48.602Z,90
2017-04-04T06:53:48.587Z,95
2017-04-04T06:54:48.564Z,95
2017-04-04T06:55:48.871Z,95
2017-04-04T06:56:48.838Z,95
2017-04-04T06:57:48.866Z,100
2017-04-04T06:58:48.814Z,100
2017-04-04T06:59:48.800Z,100
2017-04-04T07:00:48.160Z,100
2017-04-04T07:01:48.801Z,100
2017-04-04T07:02:48.427Z,100
2017-04-04T07:03:48.408Z,100
2017-04-04T07:04:48.698Z,100
2017-04-04T07:05:48.374Z,100
2017-04-04T07:06:48.668Z,100
2017-04-04T07:07:48.336Z,105
2017-04-04T07:08:48.324Z,105
2017-04-04T07:09:48.313Z,105
2017-04-04T07:10:48.601Z,105
2017-04-04T07:11:48.585Z,105
2017-04-04T07:12:48.563Z,105
2017-04-04T07:13:48.556Z,105
2017-04-04T07:14:48.532Z,105
2017-04-04T07:15:48.202Z,105
2017-04-04T07:16:48.499Z,105
2017-04-04T07:17:48.471Z,105
2017-04-04T07:18:48.157Z,110
2017-04-04T07:19:48.133Z,110
2017-04-04T07:20:48.422Z,110
2017-04-04T07:21:48.099Z,110
2017-04-04T07:22:48.170Z,110
2017-04-04T07:23:48.380Z,110
2017-04-04T07:24:48.355Z,110
2017-04-04T07:25:48.337Z,115
2017-04-04T07:26:48.013Z,115
2017-04-04T07:27:48.308Z,115
2017-04-04T07:28:48.289Z,115
2017-04-04T07:29:48.275Z,120
2017-04-04T07:30:48.255Z,120
2017-04-04T07:31:48.241Z,120
2017-04-04T07:32:48.218Z,120
2017-04-04T07:33:48.204Z,125
2017-04-04T07:34:48.189Z,125
2017-04-04T07:35:47.552Z,125
2017-04-04T07:36:48.043Z,125
2017-04-04T07:37:47.568Z,135
2017-04-04T07:38:48.123Z,130
2017-04-04T07:39:47.800Z,130
2017-04-04T07:40:48.122Z,130
2017-04-04T07:41:48.072Z,135
2017-04-04T07:42:48.068Z,135
2017-04-04T07:43:47.734Z,135
2017-04-04T07:44:47.713Z,135
2017-04-04T07:45:47.380Z,140
2017-04-04T07:46:47.992Z,140
2017-04-04T07:47:48.184Z,140
2017-04-04T07:48:47.679Z,140
2017-04-04T07:49:47.945Z,140
2017-04-04T07:50:47.615Z,140
2017-04-04T07:51:47.918Z,140
2017-04-04T07:52:47.894Z,140
2017-04-04T07:53:47.575Z,145
2017-04-04T07:54:47.565Z,145
2017-04-04T07:55:47.223Z,145
2017-04-04T07:56:47.840Z,145
2017-04-04T07:57:47.831Z,150
2017-04-04T07:58:47.487Z,155
2017-04-04T07:59:46.538Z,155
2017-04-04T08:00:47.509Z,160
2017-04-04T08:01:47.506Z,160
2017-04-04T08:02:47.749Z,160
2017-04-04T08:03:47.764Z,165
2017-04-04T08:04:47.712Z,165
2017-04-04T08:05:47.697Z,165
2017-04-04T08:06:47.392Z,165
2017-04-04T08:07:47.364Z,165
2017-04-04T08:08:47.340Z,165
2017-04-04T08:09:47.321Z,170
2017-04-04T08:10:47.305Z,170
2017-04-04T08:11:46.666Z,175
2017-04-04T08:12:47.292Z,175
2017-04-04T08:13:47.596Z,180
2017-04-04T08:14:47.559Z,190
2017-04-04T08:15:46.611Z,535
2017-04-04T08:16:47.218Z,955
2017-04-04T08:17:47.593Z,995
2017-04-04T08:18:47.508Z,1015
2017-04-04T08:19:47.491Z,1055
2017-04-04T08:20:47.186Z,1030
2017-04-04T08:21:47.158Z,935
2017-04-04T08:22:47.457Z,820
2017-04-04T08:23:47.444Z,780
2017-04-04T08:24:47.462Z,900
2017-04-04T08:25:46.826Z,1150
2017-04-04T08:26:47.106Z,1345
2017-04-04T08:27:47.424Z,1400
2017-04-04T08:28:47.130Z,1425
2017-04-04T08:29:47.417Z,1420
2017-04-04T08:30:47.069Z,1395
2017-04-04T08:31:47.409Z,1335
2017-04-04T08:32:47.382Z,1200
2017-04-04T08:33:47.376Z,1165
2017-04-04T08:34:47.359Z,1060
2017-04-04T08:35:46.718Z,1120
2017-04-04T08:36:47.014Z,960
2017-04-04T08:37:47.322Z,705
2017-04-04T08:38:47.320Z,550
2017-04-04T08:39:47.048Z,480
2017-04-04T08:40:46.709Z,635
2017-04-04T08:41:47.354Z,635
2017-04-04T08:42:46.668Z,505
2017-04-04T08:43:46.674Z,390
2017-04-04T08:44:47.302Z,300
2017-04-04T08:45:47.361Z,275
2017-04-04T08:46:47.679Z,345
2017-04-04T08:47:46.671Z,445
2017-04-04T08:48:47.275Z,560
2017-04-04T08:49:46.944Z,620
2017-04-04T08:50:47.254Z,810
2017-04-04T08:51:47.308Z,1015
2017-04-04T08:52:47.234Z,905
2017-04-04T08:53:47.235Z,655
2017-04-04T08:54:46.909Z,690
2017-04-04T08:55:47.256Z,685
2017-04-04T08:56:46.912Z,570
2017-04-04T08:57:47.204Z,610
2017-04-04T08:58:46.902Z,615
2017-04-04T08:59:47.262Z,1045
2017-04-04T09:00:46.860Z,1045
2017-04-04T09:01:46.944Z,1205
2017-04-04T09:02:46.991Z,1170
2017-04-04T09:03:47.183Z,765
2017-04-04T09:04:46.869Z,915
2017-04-04T09:05:46.890Z,790
2017-04-04T09:06:47.148Z,935
2017-04-04T09:07:47.160Z,1035
2017-04-04T09:08:46.853Z,655
2017-04-04T09:09:46.837Z,520
2017-04-04T09:10:46.827Z,590
2017-04-04T09:11:46.823Z,760
2017-04-04T09:12:47.125Z,885
2017-04-04T09:13:46.196Z,960
2017-04-04T09:14:46.807Z,815
2017-04-04T09:15:47.118Z,785
2017-04-04T09:16:46.811Z,955
2017-04-04T09:17:46.789Z,675
2017-04-04T09:18:46.781Z,635
2017-04-04T09:19:46.458Z,560
2017-04-04T09:20:46.459Z,475
2017-04-04T09:21:46.777Z,730
2017-04-04T09:22:46.765Z,665
2017-04-04T09:23:46.757Z,470
2017-04-04T09:24:46.750Z,280
2017-04-04T09:25:46.774Z,560
2017-04-04T09:26:46.740Z,740
2017-04-04T09:27:46.725Z,545
2017-04-04T09:28:46.413Z,495
2017-04-04T09:29:46.730Z,825
2017-04-04T09:30:46.714Z,980
2017-04-04T09:31:47.055Z,715
2017-04-04T09:32:47.014Z,700
2017-04-04T09:33:47.065Z,725
2017-04-04T09:34:47.010Z,635
2017-04-04T09:35:47.002Z,545
2017-04-04T09:36:46.995Z,620
2017-04-04T09:37:47.012Z,515
2017-04-04T09:38:46.992Z,580
2017-04-04T09:39:46.986Z,740
2017-04-04T09:40:46.982Z,620
2017-04-04T09:41:46.358Z,470
2017-04-04T09:42:46.647Z,475
2017-04-04T09:43:46.649Z,495
2017-04-04T09:44:46.643Z,840
2017-04-04T09:45:46.361Z,705
2017-04-04T09:46:46.627Z,350
2017-04-04T09:47:46.633Z,350
2017-04-04T09:48:46.662Z,425
2017-04-04T09:49:46.751Z,370
2017-04-04T09:50:46.662Z,515
2017-04-04T09:51:46.704Z,615
2017-04-04T09:52:46.116Z,480
2017-04-04T09:53:47.017Z,380
2017-04-04T09:54:46.700Z,380
2017-04-04T09:55:47.079Z,465
2017-04-04T09:56:46.607Z,640
2017-04-04T09:57:46.668Z,850
2017-04-04T09:58:46.928Z,730
2017-04-04T09:59:47.010Z,680
2017-04-04T10:00:47.000Z,515
2017-04-04T10:01:46.720Z,775
2017-04-04T10:02:46.629Z,1000
2017-04-04T10:03:46.932Z,1115
2017-04-04T10:04:46.902Z,735
2017-04-04T10:05:46.961Z,440
2017-04-04T10:06:46.925Z,575
2017-04-04T10:07:47.109Z,795
2017-04-04T10:08:46.568Z,1055
2017-04-04T10:09:46.555Z,975
2017-04-04T10:10:46.571Z,1160
2017-04-04T10:11:46.837Z,905
2017-04-04T10:12:46.629Z,565
2017-04-04T10:13:46.282Z,925
2017-04-04T10:14:46.261Z,1175
2017-04-04T10:15:46.497Z,1135
2017-04-04T10:16:46.889Z,825
2017-04-04T10:17:46.525Z,1055
2017-04-04T10:18:46.852Z,1320
2017-04-04T10:19:46.820Z,1225
2017-04-04T10:20:46.584Z,1390
2017-04-04T10:21:46.813Z,920
2017-04-04T10:22:46.826Z,550
2017-04-04T10:23:46.566Z,515
2017-04-04T10:24:46.877Z,665
2017-04-04T10:25:46.797Z,1125
2017-04-04T10:26:46.788Z,1230
2017-04-04T10:27:46.828Z,1095
2017-04-04T10:28:46.461Z,765
2017-04-04T10:29:46.800Z,725
2017-04-04T10:30:46.466Z,770
2017-04-04T10:31:46.757Z,845
2017-04-04T10:32:46.772Z,775
2017-04-04T10:33:46.515Z,1090
2017-04-04T10:34:46.826Z,1240
2017-04-04T10:35:46.414Z,1250
2017-04-04T10:36:46.779Z,1475
2017-04-04T10:37:45.775Z,1120
2017-04-04T10:38:46.650Z,825
2017-04-04T10:39:45.835Z,835
2017-04-04T10:40:46.384Z,700
2017-04-04T10:41:46.689Z,600
2017-04-04T10:42:46.760Z,625
2017-04-04T10:43:46.446Z,760
2017-04-04T10:44:46.730Z,830
2017-04-04T10:45:46.743Z,915
2017-04-04T10:46:47.205Z,940
2017-04-04T10:47:46.385Z,995
2017-04-04T10:48:46.426Z,765
2017-04-04T10:49:46.719Z,755
2017-04-04T10:50:46.678Z,935
2017-04-04T10:51:46.658Z,1200
2017-04-04T10:52:46.695Z,1150
2017-04-04T10:53:46.834Z,1085
2017-04-04T10:54:46.725Z,1130
2017-04-04T10:55:46.370Z,1270
2017-04-04T10:56:46.663Z,1325
2017-04-04T10:57:46.385Z,1560
2017-04-04T10:58:46.353Z,1685
2017-04-04T10:59:46.668Z,1495
2017-04-04T11:00:46.692Z,1745
2017-04-04T11:01:46.661Z,1720
2017-04-04T11:02:46.336Z,1800
2017-04-04T11:03:46.626Z,1795
2017-04-04T11:04:46.638Z,1750
2017-04-04T11:05:46.669Z,1745
2017-04-04T11:06:46.316Z,1675
2017-04-04T11:07:46.273Z,1690
2017-04-04T11:08:46.030Z,1690
2017-04-04T11:09:46.685Z,1655
2017-04-04T11:10:46.318Z,1680
2017-04-04T11:11:46.681Z,1695
2017-04-04T11:12:46.645Z,1645
2017-04-04T11:13:46.668Z,1635
2017-04-04T11:14:46.288Z,1570
2017-04-04T11:15:46.311Z,1580
2017-04-04T11:16:46.825Z,1630
2017-04-04T11:17:46.618Z,1680
2017-04-04T11:18:46.658Z,1670
2017-04-04T11:19:46.636Z,1690
2017-04-04T11:20:45.962Z,1705
2017-04-04T11:21:46.603Z,1665
2017-04-04T11:22:46.655Z,1675
2017-04-04T11:23:46.318Z,1705
2017-04-04T11:24:46.509Z,1705
2017-04-04T11:25:46.371Z,1655
2017-04-04T11:26:46.588Z,1710
2017-04-04T11:27:46.682Z,1775
2017-04-04T11:28:46.367Z,1755
2017-04-04T11:29:46.633Z,1750
2017-04-04T11:30:46.669Z,1690
2017-04-04T11:31:46.620Z,1685
2017-04-04T11:32:46.605Z,1705
2017-04-04T11:33:46.308Z,1755
2017-04-04T11:34:46.307Z,1705
2017-04-04T11:35:46.604Z,1780
2017-04-04T11:36:46.315Z,1830
2017-04-04T11:37:45.943Z,1870
2017-04-04T11:38:46.385Z,1870
2017-04-04T11:39:46.590Z,1790
2017-04-04T11:40:46.319Z,1750
2017-04-04T11:41:45.972Z,1785
2017-04-04T11:42:46.359Z,1865
2017-04-04T11:43:46.315Z,1925
2017-04-04T11:44:46.338Z,1935
2017-04-04T11:45:46.328Z,1965
2017-04-04T11:46:46.318Z,1890
2017-04-04T11:47:46.026Z,1815
2017-04-04T11:48:46.362Z,1815
2017-04-04T11:49:46.799Z,1885
2017-04-04T11:50:46.382Z,1935
2017-04-04T11:51:46.726Z,1920
2017-04-04T11:52:46.417Z,1830
2017-04-04T11:53:46.538Z,1785
2017-04-04T11:54:46.384Z,1805
2017-04-04T11:55:46.770Z,1865
2017-04-04T11:56:46.858Z,1900
2017-04-04T11:57:46.710Z,2005
2017-04-04T11:58:46.556Z,2000
2017-04-04T11:59:46.845Z,2045
2017-04-04T12:00:46.470Z,2060
2017-04-04T12:01:46.360Z,2015
2017-04-04T12:02:46.413Z,1960
2017-04-04T12:03:46.054Z,1915
2017-04-04T12:04:46.358Z,1920
2017-04-04T12:05:46.351Z,1905
2017-04-04T12:06:46.703Z,1935
2017-04-04T12:07:47.004Z,1955
2017-04-04T12:08:47.126Z,1960
2017-04-04T12:09:47.282Z,1960
2017-04-04T12:10:46.513Z,1940
2017-04-04T12:11:46.555Z,1955
2017-04-04T12:12:46.846Z,2010
2017-04-04T12:13:47.291Z,1980
2017-04-04T12:14:46.773Z,1935
2017-04-04T12:15:46.791Z,1900
2017-04-04T12:16:46.195Z,1875
2017-04-04T12:17:46.541Z,1850
2017-04-04T12:18:46.839Z,1860
2017-04-04T12:19:46.623Z,1835
2017-04-04T12:20:46.269Z,1810
2017-04-04T12:21:46.547Z,1845
2017-04-04T12:22:46.922Z,1880
2017-04-04T12:23:46.872Z,1935
2017-04-04T12:24:46.826Z,1935
2017-04-04T12:25:46.903Z,1930
2017-04-04T12:26:46.251Z,1925
2017-04-04T12:27:46.589Z,1900
2017-04-04T12:28:46.512Z,1895
2017-04-04T12:29:46.726Z,1885
2017-04-04T12:30:46.736Z,1875
2017-04-04T12:31:46.731Z,1895
2017-04-04T12:32:46.742Z,1925
2017-04-04T12:33:46.418Z,1940
2017-04-04T12:34:46.749Z,1920
2017-04-04T12:35:46.155Z,1905
2017-04-04T12:36:46.745Z,1940
2017-04-04T12:37:46.444Z,1970
2017-04-04T12:38:46.760Z,1995
2017-04-04T12:39:46.759Z,2020
2017-04-04T12:40:46.772Z,1995
2017-04-04T12:41:46.459Z,1915
2017-04-04T12:42:46.771Z,1900
2017-04-04T12:43:46.488Z,1895
2017-04-04T12:44:46.772Z,1920
2017-04-04T12:45:46.783Z,1915
2017-04-04T12:46:46.792Z,1920
2017-04-04T12:47:46.369Z,1950
2017-04-04T12:48:46.526Z,1980
2017-04-04T12:49:46.807Z,1980
2017-04-04T12:50:46.810Z,1955
2017-04-04T12:51:46.861Z,1950
2017-04-04T12:52:46.184Z,1930
2017-04-04T12:53:46.506Z,1900
2017-04-04T12:54:46.821Z,1825
2017-04-04T12:55:46.825Z,1780
2017-04-04T12:56:46.875Z,1820
2017-04-04T12:57:46.876Z,1900
2017-04-04T12:58:46.835Z,1990
2017-04-04T12:59:46.840Z,1985
2017-04-04T13:00:46.837Z,1980
2017-04-04T13:01:46.526Z,1935
2017-04-04T13:02:46.852Z,1875
2017-04-04T13:03:46.847Z,1810
2017-04-04T13:04:46.851Z,1780
2017-04-04T13:05:46.852Z,1820
2017-04-04T13:06:46.869Z,1865
2017-04-04T13:07:46.859Z,1920
2017-04-04T13:08:46.549Z,1870
2017-04-04T13:09:46.562Z,1805
2017-04-04T13:10:47.066Z,1665
2017-04-04T13:11:46.923Z,1595
2017-04-04T13:12:46.562Z,1685
2017-04-04T13:13:46.569Z,1780
2017-04-04T13:14:46.574Z,1830
2017-04-04T13:15:46.574Z,1820
2017-04-04T13:16:46.896Z,1850
2017-04-04T13:17:46.900Z,1855
2017-04-04T13:18:46.895Z,1825
2017-04-04T13:19:46.908Z,1805
2017-04-04T13:20:46.909Z,1835
2017-04-04T13:21:46.949Z,1850
2017-04-04T13:22:46.910Z,1825
2017-04-04T13:23:46.672Z,1840
2017-04-04T13:24:46.922Z,1795
2017-04-04T13:25:46.607Z,1730
2017-04-04T13:26:46.627Z,1730
2017-04-04T13:27:46.942Z,1740
2017-04-04T13:28:46.951Z,1725
2017-04-04T13:29:46.991Z,1680
2017-04-04T13:30:46.618Z,1680
2017-04-04T13:31:46.644Z,1695
2017-04-04T13:32:46.630Z,1680
2017-04-04T13:33:46.954Z,1645
2017-04-04T13:34:46.683Z,1610
2017-04-04T13:35:46.962Z,1590
2017-04-04T13:36:46.956Z,1600
2017-04-04T13:37:46.963Z,1590
2017-04-04T13:38:46.972Z,1580
2017-04-04T13:39:46.654Z,1560
2017-04-04T13:40:47.173Z,1540
2017-04-04T13:41:46.976Z,1535
2017-04-04T13:42:46.673Z,1545
2017-04-04T13:43:46.663Z,1545
2017-04-04T13:44:46.985Z,1510
2017-04-04T13:45:47.039Z,1480
2017-04-04T13:46:46.985Z,1435
2017-04-04T13:47:46.678Z,1425
2017-04-04T13:48:46.677Z,1410
2017-04-04T13:49:46.994Z,1425
2017-04-04T13:50:46.740Z,1525
2017-04-04T13:51:47.002Z,1555
2017-04-04T13:52:47.000Z,1640
2017-04-04T13:53:47.014Z,1680
2017-04-04T13:54:47.007Z,1645
2017-04-04T13:55:47.010Z,1640
2017-04-04T13:56:46.704Z,1665
2017-04-04T13:57:47.030Z,1660
2017-04-04T13:58:47.020Z,1640
2017-04-04T13:59:47.025Z,1660
2017-04-04T14:00:47.032Z,1660
2017-04-04T14:01:47.032Z,1610
2017-04-04T14:02:46.722Z,1575